Time;durP1;ratioP1;P1;durP2;ratioP2;P2;SDS_P1;SDS_P2;PMS_P1;PMS_P2;Temp;Humidity;BMP_temperature;BMP_pressure;BME280_temperature;BME280_humidity;BME280_pressure;Samples;Min_cycle;Max_cycle;Signal;HPM_P1;HPM_P2
2022/09/17 00:01:13;;;;;;;6.15;2.67;;;;;;;23.13;50.99;100066.41;4999670;28;20559;-56
2022/09/17 00:05:36;;;;;;;6.93;2.85;;;;;;;23.10;51.00;100069.66;5070765;27;20451;-56
2022/09/17 00:09:02;;;;;;;4.60;2.50;;;;;;;23.04;51.17;100074.25;5027228;28;20415;-59
2022/09/17 00:11:30;;;;;;;7.20;2.63;;;;;;;23.03;51.26;100069.91;5017478;28;20423;-56
2022/09/17 00:16:09;;;;;;;5.88;2.50;;;;;;;23.01;51.54;100052.31;5109359;27;20462;-57
2022/09/17 00:18:39;;;;;;;6.80;2.40;;;;;;;23.02;51.46;100056.66;5096538;28;20401;-56
2022/09/17 00:21:05;;;;;;;9.30;2.60;;;;;;;23.00;51.37;100053.41;5098286;28;20385;-58
2022/09/17 00:23:31;;;;;;;6.30;2.58;;;;;;;22.96;51.55;100049.59;5099658;28;20368;-57
2022/09/17 00:25:57;;;;;;;7.43;2.78;;;;;;;22.91;51.70;100042.31;5100856;28;20408;-57
2022/09/17 00:28:24;;;;;;;5.63;2.40;;;;;;;22.92;51.82;100046.63;5102339;28;20426;-56
2022/09/17 00:30:49;;;;;;;6.23;2.30;;;;;;;22.88;51.67;100040.13;5101447;28;20377;-56
2022/09/17 00:33:16;;;;;;;6.85;2.65;;;;;;;22.88;51.83;100032.03;5099361;28;20377;-56
2022/09/17 00:38:21;;;;;;;5.10;2.30;;;;;;;22.88;51.75;100024.72;5030344;28;20411;-56
2022/09/17 00:40:47;;;;;;;6.53;2.67;;;;;;;22.88;51.73;100032.03;5015850;28;20950;-56
2022/09/17 00:43:57;;;;;;;5.70;2.33;;;;;;;22.88;52.01;100034.72;5052220;27;20767;-56
2022/09/17 00:46:31;;;;;;;6.30;2.67;;;;;;;22.80;51.74;100027.16;5049066;28;20931;-57
2022/09/17 00:49:29;;;;;;;4.40;2.28;;;;;;;22.80;52.05;100025.28;5052406;27;20403;-56
2022/09/17 00:52:02;;;;;;;5.83;2.30;;;;;;;22.82;51.76;100020.41;5042189;28;20492;-57
2022/09/17 00:54:28;;;;;;;4.47;2.05;;;;;;;22.82;51.70;100023.09;5040752;28;20749;-57
2022/09/17 00:56:53;;;;;;;3.45;2.05;;;;;;;22.79;51.97;100025.53;5038794;28;20392;-54
2022/09/17 00:59:21;;;;;;;6.03;2.40;;;;;;;22.80;51.81;100036.09;5040957;28;20381;-56
2022/09/17 01:01:47;;;;;;;6.30;2.17;;;;;;;22.77;52.01;100027.69;5040551;28;20480;-57
2022/09/17 01:04:24;;;;;;;6.13;2.07;;;;;;;22.80;52.04;100035.28;5037134;28;20476;-56
2022/09/17 01:07:11;;;;;;;5.10;2.17;;;;;;;22.75;52.07;100019.84;5041649;28;20416;-56
2022/09/17 01:09:55;;;;;;;4.82;2.17;;;;;;;22.74;51.93;100026.31;5039410;28;20395;-56
2022/09/17 01:12:33;;;;;;;4.50;2.03;;;;;;;22.68;52.38;100022.00;5041535;28;20450;-56
2022/09/17 01:15:20;;;;;;;4.60;2.27;;;;;;;22.63;52.57;100013.88;5036414;28;20883;-55
2022/09/17 01:20:41;;;;;;;3.85;2.10;;;;;;;22.61;52.32;100016.06;5032944;28;20415;-56
2022/09/17 01:23:43;;;;;;;3.83;1.85;;;;;;;22.58;52.36;100028.22;5028575;28;20407;-56
2022/09/17 01:28:34;;;;;;;6.88;2.10;;;;;;;22.44;52.46;100019.78;5069749;27;20465;-56
2022/09/17 01:31:17;;;;;;;4.88;2.13;;;;;;;22.44;52.54;100013.59;5059500;28;20448;-56
2022/09/17 01:34:20;;;;;;;3.67;2.10;;;;;;;22.37;52.98;100007.63;5058566;28;20384;-56
2022/09/17 01:36:57;;;;;;;4.10;2.28;;;;;;;22.30;52.89;100021.38;5055263;28;20487;-56
2022/09/17 01:39:33;;;;;;;5.50;2.20;;;;;;;22.26;53.08;100006.75;5056954;28;20396;-56
2022/09/17 01:42:15;;;;;;;6.72;2.50;;;;;;;22.24;53.30;99987.31;5051835;28;20389;-57
2022/09/17 01:45:29;;;;;;;6.20;2.50;;;;;;;22.18;53.47;99980.25;5064337;28;20695;-57
2022/09/17 01:49:46;;;;;;;5.30;2.70;;;;;;;22.08;53.66;99960.25;5050760;28;20410;-56
2022/09/17 01:52:14;;;;;;;8.40;2.97;;;;;;;22.08;53.89;99954.84;5032780;28;20450;-55
2022/09/17 01:54:46;;;;;;;7.18;2.70;;;;;;;22.07;53.83;99957.81;5045186;28;20401;-56
2022/09/17 01:57:22;;;;;;;5.03;2.60;;;;;;;22.06;53.96;99951.63;5042274;28;20410;-56
2022/09/17 02:00:00;;;;;;;6.97;2.80;;;;;;;22.05;53.84;99939.19;5039314;28;20472;-56
2022/09/17 02:02:35;;;;;;;6.40;3.22;;;;;;;22.06;54.00;99921.13;5034077;28;20411;-56
2022/09/17 02:07:15;;;;;;;5.07;2.80;;;;;;;21.89;54.65;99919.44;5071365;28;20399;-56
2022/09/17 02:09:49;;;;;;;7.32;2.95;;;;;;;21.87;54.71;99924.28;5065372;28;20411;-56
2022/09/17 02:12:20;;;;;;;8.13;3.20;;;;;;;21.87;54.97;99912.69;5055748;28;20883;-56
2022/09/17 02:14:51;;;;;;;4.82;3.13;;;;;;;21.86;55.19;99911.88;5064892;28;20392;-56
2022/09/17 02:17:33;;;;;;;5.60;2.78;;;;;;;21.86;54.95;99905.66;5057966;28;20479;-56
2022/09/17 02:20:00;;;;;;;7.72;3.35;;;;;;;21.84;55.09;99911.34;5060437;28;20396;-55
2022/09/17 02:22:50;;;;;;;7.82;2.88;;;;;;;21.86;55.10;99903.78;5064106;28;20400;-56
2022/09/17 02:25:36;;;;;;;6.78;3.40;;;;;;;21.79;55.70;99895.13;5058802;28;20502;-56
2022/09/17 02:28:13;;;;;;;9.35;3.53;;;;;;;21.72;56.18;99889.16;5054796;28;20406;-56
2022/09/17 02:30:39;;;;;;;9.53;4.07;;;;;;;21.71;56.27;99898.31;5061032;28;20402;-56
2022/09/17 02:33:08;;;;;;;9.95;4.25;;;;;;;21.70;56.24;99888.63;5055758;28;20407;-56
2022/09/17 02:35:35;;;;;;;11.70;5.10;;;;;;;21.66;55.93;99893.75;5062534;28;20392;-57
2022/09/17 02:38:01;;;;;;;11.55;4.50;;;;;;;21.74;55.92;99889.72;5051796;28;20919;-56
2022/09/17 02:40:30;;;;;;;9.77;3.80;;;;;;;21.77;55.46;99886.50;5063718;28;20396;-57
2022/09/17 02:43:03;;;;;;;10.13;3.97;;;;;;;21.79;55.34;99873.56;5065514;28;20770;-57
2022/09/17 02:45:45;;;;;;;7.95;3.40;;;;;;;21.79;54.93;99875.41;5044641;28;20414;-56
2022/09/17 02:48:48;;;;;;;6.33;3.30;;;;;;;21.81;54.79;99857.09;5025899;28;20411;-56
2022/09/17 02:51:19;;;;;;;10.38;3.60;;;;;;;21.76;54.49;99839.81;5025304;28;20801;-56
2022/09/17 02:53:55;;;;;;;7.10;3.22;;;;;;;21.70;54.95;99835.47;5026068;28;20395;-56
2022/09/17 02:58:37;;;;;;;4.90;2.67;;;;;;;21.58;55.24;99824.91;5038692;28;20470;-57
2022/09/17 03:01:08;;;;;;;7.57;2.93;;;;;;;21.56;55.37;99820.88;5036370;28;20413;-57
2022/09/17 03:03:38;;;;;;;9.30;3.30;;;;;;;21.57;55.29;99825.19;5045832;28;20409;-56
2022/09/17 03:06:04;;;;;;;6.67;3.20;;;;;;;21.58;55.57;99838.41;5043548;28;20393;-56
2022/09/17 03:08:37;;;;;;;8.57;3.10;;;;;;;21.53;55.39;99824.91;5044303;28;20406;-55
2022/09/17 03:11:04;;;;;;;5.38;2.80;;;;;;;21.56;55.40;99827.06;5041483;28;20432;-57
2022/09/17 03:13:30;;;;;;;6.15;2.75;;;;;;;21.57;55.26;99830.56;5036189;28;20397;-56
2022/09/17 03:15:55;;;;;;;7.80;2.80;;;;;;;21.58;55.23;99840.28;5039865;28;20775;-56
2022/09/17 03:18:21;;;;;;;6.27;2.90;;;;;;;21.50;54.98;99821.91;5031493;28;20479;-55
2022/09/17 03:20:46;;;;;;;6.80;2.80;;;;;;;21.49;54.97;99823.00;5045575;28;20413;-57
2022/09/17 03:25:14;;;;;;;7.55;3.10;;;;;;;21.32;55.15;99801.59;5040000;28;20419;-56
2022/09/17 03:27:39;;;;;;;7.23;3.07;;;;;;;21.22;55.41;99815.84;5018577;28;20405;-56
2022/09/17 03:30:05;;;;;;;5.47;2.70;;;;;;;21.29;55.16;99810.22;5021197;28;20403;-56
2022/09/17 03:32:31;;;;;;;5.93;2.85;;;;;;;21.31;54.85;99803.50;5012072;28;20445;-56
2022/09/17 03:34:57;;;;;;;5.33;3.07;;;;;;;21.32;54.93;99809.69;5025767;28;20395;-56
2022/09/17 03:37:22;;;;;;;7.07;3.03;;;;;;;21.31;54.90;99814.28;5026008;28;20457;-57
2022/09/17 03:39:48;;;;;;;8.37;2.70;;;;;;;21.28;54.68;99808.59;5026102;28;20460;-56
2022/09/17 03:42:13;;;;;;;8.57;3.13;;;;;;;21.23;54.96;99804.00;5026018;28;20423;-56
2022/09/17 03:44:39;;;;;;;5.53;2.90;;;;;;;21.22;55.06;99812.34;5025144;28;20423;-56
2022/09/17 03:48:25;;;;;;;7.68;3.33;;;;;;;21.18;54.91;99820.97;5067081;28;20415;-57
2022/09/17 03:50:51;;;;;;;6.50;3.00;;;;;;;21.18;54.74;99809.38;5065815;28;20473;-57
2022/09/17 03:53:17;;;;;;;8.20;2.93;;;;;;;21.19;54.73;99809.13;5065884;28;20484;-57
2022/09/17 03:55:42;;;;;;;6.03;2.95;;;;;;;21.10;54.98;99807.16;5051315;28;20431;-57
2022/09/17 03:58:08;;;;;;;5.43;3.40;;;;;;;21.05;54.98;99799.88;5064057;28;20486;-57
2022/09/17 04:00:35;;;;;;;7.33;3.13;;;;;;;21.06;55.03;99798.78;5063075;28;20427;-58
2022/09/17 04:03:02;;;;;;;9.20;2.92;;;;;;;21.06;55.22;99804.19;5063885;28;20458;-57
2022/09/17 04:05:46;;;;;;;6.93;3.00;;;;;;;21.04;55.20;99800.16;5062616;28;20403;-57
2022/09/17 04:08:12;;;;;;;6.47;3.00;;;;;;;21.03;55.09;99806.59;5061299;28;20419;-56
2022/09/17 04:10:37;;;;;;;8.10;3.43;;;;;;;21.03;55.27;99809.28;5054121;28;20403;-56
2022/09/17 04:13:02;;;;;;;13.27;3.60;;;;;;;21.00;55.19;99811.44;5063836;28;20518;-57
2022/09/17 04:15:28;;;;;;;9.63;3.50;;;;;;;20.99;55.12;99809.00;5064750;28;20990;-56
2022/09/17 04:17:56;;;;;;;6.30;3.30;;;;;;;21.05;55.05;99804.44;5053839;28;20408;-57
2022/09/17 04:20:23;;;;;;;9.00;4.00;;;;;;;21.08;54.88;99804.72;5060811;28;20417;-57
2022/09/17 04:22:49;;;;;;;7.18;3.65;;;;;;;21.12;54.89;99816.63;5068121;28;20467;-56
2022/09/17 04:25:15;;;;;;;7.95;3.35;;;;;;;21.12;54.73;99810.41;5053852;28;20381;-56
2022/09/17 04:28:55;;;;;;;9.10;3.20;;;;;;;21.12;54.64;99807.72;5052857;27;20404;-57
2022/09/17 04:31:23;;;;;;;7.03;3.10;;;;;;;21.07;54.51;99807.69;5061102;28;20453;-57
2022/09/17 04:33:49;;;;;;;7.00;3.30;;;;;;;21.06;54.59;99811.47;5064888;28;20435;-56
2022/09/17 04:36:15;;;;;;;6.93;3.08;;;;;;;21.07;54.37;99808.50;5065728;28;20396;-57
2022/09/17 04:38:40;;;;;;;6.63;2.90;;;;;;;21.09;54.09;99827.91;5062091;28;20399;-57
2022/09/17 04:41:06;;;;;;;6.70;2.70;;;;;;;21.09;54.10;99830.63;5061128;28;20395;-58
2022/09/17 04:43:32;;;;;;;6.63;2.97;;;;;;;21.07;54.10;99815.75;5065331;28;20457;-56
2022/09/17 04:45:58;;;;;;;8.73;3.23;;;;;;;21.07;54.06;99829.25;5058675;28;20385;-56
2022/09/17 04:48:23;;;;;;;7.70;3.08;;;;;;;21.08;54.16;99831.69;5061877;28;20415;-57
2022/09/17 04:50:49;;;;;;;9.83;3.27;;;;;;;21.06;54.17;99828.44;5060233;28;20488;-57
2022/09/17 04:53:14;;;;;;;9.17;3.10;;;;;;;21.16;54.01;99855.44;5052301;28;20505;-56
2022/09/17 04:57:14;;;;;;;9.82;3.22;;;;;;;21.17;53.75;99867.03;5056749;28;20990;-56
2022/09/17 04:59:39;;;;;;;7.33;3.77;;;;;;;21.18;53.44;99874.06;5043209;28;20403;-56
2022/09/17 05:02:05;;;;;;;7.72;3.13;;;;;;;21.10;53.49;99861.88;5038567;28;20399;-57
2022/09/17 05:04:30;;;;;;;4.53;2.57;;;;;;;21.03;53.62;99853.22;5029585;28;20488;-56
2022/09/17 05:06:56;;;;;;;15.03;3.70;;;;;;;21.08;53.47;99864.00;5030557;28;20397;-57
2022/09/17 05:09:21;;;;;;;9.25;3.38;;;;;;;21.18;53.34;99863.28;5039553;28;20462;-57
2022/09/17 05:11:47;;;;;;;7.90;3.20;;;;;;;21.32;53.10;99875.22;5037760;28;20487;-56
2022/09/17 05:14:13;;;;;;;5.63;2.80;;;;;;;21.43;52.74;99876.06;5030033;28;20395;-55
2022/09/17 05:16:38;;;;;;;8.82;3.00;;;;;;;21.61;52.58;99884.78;5028816;28;20437;-55
2022/09/17 05:19:04;;;;;;;10.30;3.35;;;;;;;21.72;52.51;99875.69;5030431;28;20824;-57
2022/09/17 05:21:29;;;;;;;9.23;3.10;;;;;;;21.84;52.47;99887.06;5038259;28;20480;-57
2022/09/17 05:23:54;;;;;;;4.57;2.83;;;;;;;21.89;52.52;99895.16;5039294;28;20770;-56
2022/09/17 05:26:20;;;;;;;6.53;3.67;;;;;;;22.00;52.61;99906.78;5036787;28;20389;-56
2022/09/17 05:28:45;;;;;;;11.10;5.78;;;;;;;22.02;53.36;99914.63;5040518;28;20463;-56
2022/09/17 05:31:11;;;;;;;10.90;6.33;;;;;;;22.00;54.34;99908.69;5037873;28;20472;-56
2022/09/17 05:33:36;;;;;;;13.30;7.30;;;;;;;22.04;54.60;99925.94;5038855;28;20387;-56
2022/09/17 05:36:02;;;;;;;11.00;7.50;;;;;;;22.14;54.86;99921.38;5034025;28;20426;-57
2022/09/17 05:38:28;;;;;;;11.60;7.10;;;;;;;22.22;54.56;99919.25;5027579;28;20842;-56
2022/09/17 05:40:53;;;;;;;10.57;6.45;;;;;;;22.38;54.55;99925.53;5029149;28;20442;-56
2022/09/17 05:43:19;;;;;;;12.03;5.83;;;;;;;22.58;53.83;99928.28;5029500;28;20402;-55
2022/09/17 05:45:45;;;;;;;9.07;4.90;;;;;;;22.80;53.71;99922.59;5029138;28;20397;-56
2022/09/17 05:48:13;;;;;;;8.53;5.30;;;;;;;23.14;52.96;99913.94;5025176;28;20766;-56
2022/09/17 05:50:40;;;;;;;9.55;5.10;;;;;;;23.46;52.49;99920.88;5027836;28;20554;-56
2022/09/17 05:53:12;;;;;;;8.32;4.72;;;;;;;23.67;51.64;99917.03;5046202;28;20386;-56
2022/09/17 05:55:39;;;;;;;7.88;5.05;;;;;;;23.87;51.49;99919.97;5029790;28;20862;-56
2022/09/17 05:58:13;;;;;;;10.82;4.53;;;;;;;24.33;50.70;99933.25;5034632;28;20407;-56
2022/09/17 06:00:40;;;;;;;10.05;4.55;;;;;;;24.68;49.98;99925.97;5031366;28;20797;-56
2022/09/17 06:03:05;;;;;;;6.65;4.70;;;;;;;24.69;49.73;99911.34;5031957;28;20419;-56
2022/09/17 06:05:31;;;;;;;6.23;4.10;;;;;;;25.24;48.61;99911.91;5034399;28;20392;-56
2022/09/17 06:07:56;;;;;;;10.05;4.60;;;;;;;25.47;48.03;99910.31;5028554;28;20481;-56
2022/09/17 06:10:22;;;;;;;8.37;4.17;;;;;;;25.30;48.27;99905.38;5031789;28;20414;-56
2022/09/17 06:12:47;;;;;;;4.97;3.80;;;;;;;25.20;48.66;99913.56;5023072;28;20410;-56
2022/09/17 06:15:13;;;;;;;8.20;3.80;;;;;;;25.09;48.94;99910.16;5021070;28;20455;-57
2022/09/17 06:17:40;;;;;;;5.27;2.80;;;;;;;24.79;49.36;99905.81;5015576;28;20392;-56
2022/09/17 06:20:06;;;;;;;4.57;2.63;;;;;;;24.57;49.99;99915.22;5014259;28;20979;-57
2022/09/17 06:22:31;;;;;;;4.53;2.87;;;;;;;24.47;50.28;99922.56;5022371;28;20819;-57
2022/09/17 06:24:58;;;;;;;3.88;2.47;;;;;;;24.28;50.89;99920.53;5018406;28;20429;-56
2022/09/17 06:27:29;;;;;;;4.10;2.37;;;;;;;24.08;51.31;99912.56;5019874;28;20453;-57
2022/09/17 06:29:55;;;;;;;4.37;2.30;;;;;;;23.87;51.96;99917.25;5013961;28;20574;-56
2022/09/17 06:32:20;;;;;;;4.93;2.20;;;;;;;23.79;52.16;99927.53;5019786;28;20892;-57
2022/09/17 06:34:46;;;;;;;5.90;2.63;;;;;;;23.89;51.98;99925.91;5016976;28;20435;-57
2022/09/17 06:37:11;;;;;;;7.17;2.77;;;;;;;24.04;51.72;99923.13;5018956;28;20451;-57
2022/09/17 06:39:37;;;;;;;5.63;2.30;;;;;;;24.17;51.47;99922.50;5013615;28;20416;-57
2022/09/17 06:42:02;;;;;;;4.90;2.20;;;;;;;24.18;51.51;99920.59;5013836;28;22330;-56
2022/09/17 06:44:28;;;;;;;4.70;2.23;;;;;;;25.52;48.61;99914.88;5025380;28;20421;-57
2022/09/17 06:46:53;;;;;;;5.90;2.40;;;;;;;27.00;45.02;99909.22;5034564;28;20397;-57
2022/09/17 06:49:19;;;;;;;4.53;1.80;;;;;;;27.00;44.47;99914.66;5028590;28;20404;-57
2022/09/17 06:51:44;;;;;;;4.70;2.03;;;;;;;26.30;45.94;99905.44;5029677;28;20476;-57
2022/09/17 06:54:11;;;;;;;4.40;1.90;;;;;;;28.15;42.86;99914.88;5044849;28;20393;-57
2022/09/17 06:56:37;;;;;;;5.87;2.10;;;;;;;29.84;39.06;99915.19;5030107;28;20426;-60
2022/09/17 06:59:02;;;;;;;6.88;1.88;;;;;;;29.78;38.79;99909.06;5038504;28;20752;-57
2022/09/17 07:01:28;;;;;;;3.90;1.80;;;;;;;28.95;40.45;99920.59;5031626;28;20398;-58
2022/09/17 07:03:53;;;;;;;6.37;1.83;;;;;;;28.02;42.21;99935.59;5032208;28;20409;-57
2022/09/17 07:06:19;;;;;;;3.15;1.67;;;;;;;27.52;43.08;99943.69;5031566;28;20390;-57
2022/09/17 07:08:45;;;;;;;3.93;1.63;;;;;;;26.92;43.79;99944.47;5031982;28;20394;-57
2022/09/17 07:11:12;;;;;;;4.80;1.80;;;;;;;26.98;44.05;99944.06;5031264;28;20419;-58
2022/09/17 07:13:37;;;;;;;6.85;1.90;;;;;;;27.43;43.13;99944.38;5024705;28;20396;-57
2022/09/17 07:16:05;;;;;;;6.60;1.90;;;;;;;27.48;43.05;99932.59;5035218;28;20831;-56
2022/09/17 07:18:31;;;;;;;5.15;1.80;;;;;;;27.38;42.84;99933.56;5037390;28;20404;-57
2022/09/17 07:21:03;;;;;;;7.55;2.08;;;;;;;27.13;43.15;99913.06;5041865;28;20393;-57
2022/09/17 07:23:31;;;;;;;4.93;2.17;;;;;;;27.11;43.43;99915.28;5039933;28;20393;-57
2022/09/17 07:25:59;;;;;;;5.10;2.50;;;;;;;27.05;43.84;99911.84;5034465;28;20904;-57
2022/09/17 07:28:25;;;;;;;6.40;2.37;;;;;;;26.84;43.51;99911.41;5017224;28;20420;-57
2022/09/17 07:30:51;;;;;;;4.85;2.30;;;;;;;26.71;43.87;99906.75;5037269;28;20433;-57
2022/09/17 07:33:22;;;;;;;7.38;2.47;;;;;;;26.62;44.34;99903.09;5036013;28;20388;-57
2022/09/17 07:35:59;;;;;;;4.65;2.17;;;;;;;26.69;44.03;99898.88;5034248;28;20831;-58
2022/09/17 07:38:26;;;;;;;5.13;2.30;;;;;;;26.60;44.35;99894.41;5031269;28;20465;-57
2022/09/17 07:41:01;;;;;;;4.10;2.00;;;;;;;26.55;44.54;99899.91;5043805;28;20409;-58
2022/09/17 07:43:29;;;;;;;7.55;1.95;;;;;;;26.56;44.31;99899.63;5039132;28;20408;-57
2022/09/17 07:45:56;;;;;;;3.87;2.00;;;;;;;26.44;45.05;99897.34;5031909;28;20817;-57
2022/09/17 07:48:22;;;;;;;7.88;1.75;;;;;;;26.51;44.87;99892.34;5026943;28;20409;-57
2022/09/17 07:53:08;;;;;;;3.95;2.00;;;;;;;26.50;44.45;99898.88;5088707;27;20406;-57
2022/09/17 07:55:34;;;;;;;4.90;1.83;;;;;;;26.44;44.58;99905.50;5092849;28;20457;-57
2022/09/17 07:57:59;;;;;;;3.83;1.67;;;;;;;26.28;44.62;99896.78;5091732;28;20485;-57
2022/09/17 08:00:25;;;;;;;7.43;1.83;;;;;;;26.28;45.25;99909.56;5091213;28;20455;-57
2022/09/17 08:02:54;;;;;;;4.88;1.70;;;;;;;26.04;45.67;99915.88;5090225;28;20398;-57
2022/09/17 08:05:21;;;;;;;4.78;2.10;;;;;;;25.93;46.34;99917.94;5090778;28;20412;-58
2022/09/17 08:07:51;;;;;;;6.57;2.10;;;;;;;25.92;46.22;99910.03;5092222;28;20412;-57
2022/09/17 08:10:20;;;;;;;3.42;1.60;;;;;;;25.79;46.38;99918.91;5090424;28;20403;-57
2022/09/17 08:12:47;;;;;;;6.20;2.55;;;;;;;25.87;46.51;99915.53;5086641;28;20402;-58
2022/09/17 08:15:13;;;;;;;5.40;1.80;;;;;;;25.92;46.21;99916.28;5101198;28;20395;-57
2022/09/17 08:17:42;;;;;;;4.37;1.60;;;;;;;25.91;46.15;99930.13;5092994;28;20392;-57
2022/09/17 08:21:05;;;;;;;3.78;1.65;;;;;;;25.65;46.70;99938.59;5088807;27;20410;-57
2022/09/17 08:23:34;;;;;;;3.63;1.97;;;;;;;25.52;47.26;99940.13;5094143;28;20400;-57
2022/09/17 08:26:00;;;;;;;7.80;1.90;;;;;;;25.49;47.57;99931.75;5089376;28;20401;-57
2022/09/17 08:28:28;;;;;;;5.28;1.90;;;;;;;25.48;47.45;99936.38;5081361;28;20398;-57
2022/09/17 08:30:58;;;;;;;6.13;1.70;;;;;;;25.56;47.14;99946.56;5082653;28;20394;-57
2022/09/17 08:33:24;;;;;;;3.40;1.58;;;;;;;25.53;47.34;99949.06;5095036;28;20394;-58
2022/09/17 08:35:53;;;;;;;5.53;1.70;;;;;;;25.58;47.11;99950.91;5074128;28;20456;-57
2022/09/17 08:38:20;;;;;;;4.53;1.70;;;;;;;25.47;47.10;99944.78;5066987;28;20956;-58
2022/09/17 08:41:11;;;;;;;4.55;1.70;;;;;;;25.49;47.00;99945.31;5063819;28;20781;-57
2022/09/17 08:43:53;;;;;;;4.40;1.98;;;;;;;25.53;47.13;99946.34;5065782;28;20395;-57
2022/09/17 08:46:20;;;;;;;5.57;1.90;;;;;;;25.49;47.35;99953.44;5073777;28;20386;-58
2022/09/17 08:49:14;;;;;;;4.78;2.00;;;;;;;25.45;47.36;99960.56;5095211;28;20387;-57
2022/09/17 08:52:09;;;;;;;5.15;2.08;;;;;;;25.42;47.81;99958.41;5081793;28;20436;-58
2022/09/17 08:55:14;;;;;;;6.60;2.05;;;;;;;25.39;47.82;99951.66;5088341;28;20431;-57
2022/09/17 08:58:04;;;;;;;5.57;2.20;;;;;;;25.40;48.10;99949.75;5044480;28;20396;-57
2022/09/17 09:00:41;;;;;;;5.97;2.97;;;;;;;25.41;48.33;99945.94;5077458;28;20416;-57
2022/09/17 09:03:20;;;;;;;6.53;2.10;;;;;;;25.40;47.96;99930.75;5071890;28;20815;-56
2022/09/17 09:05:51;;;;;;;7.95;2.25;;;;;;;25.32;48.35;99924.88;5065128;28;20955;-57
2022/09/17 09:08:44;;;;;;;7.10;2.10;;;;;;;25.31;48.06;99928.66;5065299;28;20388;-56
2022/09/17 09:11:16;;;;;;;3.63;2.20;;;;;;;25.36;48.32;99933.25;5068665;28;20697;-56
2022/09/17 09:13:52;;;;;;;7.93;2.42;;;;;;;25.31;48.58;99930.59;5088497;28;20499;-58
2022/09/17 09:16:22;;;;;;;7.77;3.03;;;;;;;25.34;48.93;99938.94;5093074;28;20392;-57
2022/09/17 09:18:53;;;;;;;9.70;3.30;;;;;;;25.32;49.33;99929.50;5092743;28;20404;-57
2022/09/17 09:21:26;;;;;;;4.88;2.60;;;;;;;25.23;49.22;99915.72;5076168;28;20387;-57
2022/09/17 09:24:01;;;;;;;5.10;2.35;;;;;;;25.23;49.29;99923.03;5085582;28;20495;-57
2022/09/17 09:26:43;;;;;;;9.23;3.30;;;;;;;25.19;49.27;99925.50;5073342;28;20860;-57
2022/09/17 09:29:09;;;;;;;8.25;3.28;;;;;;;25.20;49.50;99921.72;5092028;28;20408;-57
2022/09/17 09:31:47;;;;;;;10.00;4.50;;;;;;;25.19;49.58;99928.22;5076444;28;20436;-58
2022/09/17 09:34:14;;;;;;;8.80;2.97;;;;;;;25.16;49.33;99935.03;5077628;28;20414;-57
2022/09/17 09:36:40;;;;;;;5.10;2.30;;;;;;;25.12;49.16;99949.44;5078818;28;20385;-57
2022/09/17 09:39:19;;;;;;;10.53;3.87;;;;;;;25.11;49.46;99958.69;5073288;28;20474;-57
2022/09/17 09:41:46;;;;;;;10.82;3.13;;;;;;;25.07;49.41;99952.22;5067832;28;20799;-57
2022/09/17 09:44:14;;;;;;;6.15;2.70;;;;;;;25.03;49.23;99948.44;5061687;28;20385;-57
2022/09/17 09:47:06;;;;;;;6.53;2.80;;;;;;;24.99;49.42;99943.59;5060036;28;20412;-57
2022/09/17 09:49:52;;;;;;;6.85;3.50;;;;;;;24.99;49.49;99937.34;5056283;28;20478;-57
2022/09/17 09:52:47;;;;;;;6.43;2.92;;;;;;;24.93;50.05;99935.81;5050862;28;20946;-57
2022/09/17 09:55:48;;;;;;;7.10;3.00;;;;;;;24.88;50.54;99952.09;5050484;28;20393;-57
2022/09/17 09:58:37;;;;;;;7.85;3.70;;;;;;;24.83;50.96;99958.41;5057034;28;20396;-56
2022/09/17 10:01:15;;;;;;;9.60;3.85;;;;;;;24.78;51.19;99967.38;5058860;28;20409;-56
2022/09/17 10:03:44;;;;;;;9.45;3.70;;;;;;;24.77;51.13;99982.00;5066184;28;20475;-57
2022/09/17 10:06:11;;;;;;;11.90;4.18;;;;;;;24.74;51.21;99981.75;5057648;28;20395;-57
2022/09/17 10:09:01;;;;;;;9.63;4.50;;;;;;;24.66;51.24;99972.31;5051932;28;20407;-57
2022/09/17 10:11:31;;;;;;;7.80;3.85;;;;;;;24.64;51.20;99958.25;5055555;28;20464;-57
2022/09/17 10:14:24;;;;;;;10.73;5.45;;;;;;;24.61;51.34;99935.25;5061384;28;20401;-57
2022/09/17 10:17:10;;;;;;;8.63;3.53;;;;;;;24.55;51.67;99913.88;5056987;28;20511;-57
2022/09/17 10:19:35;;;;;;;7.45;3.30;;;;;;;24.52;51.68;99906.28;5057350;28;20419;-57
2022/09/17 10:22:19;;;;;;;8.10;3.70;;;;;;;24.53;51.40;99907.94;5064056;28;20484;-56
2022/09/17 10:24:45;;;;;;;5.55;3.00;;;;;;;24.54;51.57;99912.25;5061351;28;20383;-57
2022/09/17 10:27:18;;;;;;;8.00;3.30;;;;;;;24.53;51.54;99897.91;5065565;28;20381;-57
2022/09/17 10:29:46;;;;;;;6.17;3.13;;;;;;;24.47;51.62;99900.91;5050794;28;20447;-58
2022/09/17 10:32:16;;;;;;;19.73;4.27;;;;;;;24.50;51.83;99916.59;5058819;28;20393;-58
2022/09/17 10:34:57;;;;;;;8.90;3.33;;;;;;;24.54;51.78;99909.53;5055564;28;20384;-59
2022/09/17 10:37:41;;;;;;;9.23;3.58;;;;;;;24.58;51.68;99878.09;5053580;28;20384;-60
2022/09/17 10:40:17;;;;;;;7.07;3.60;;;;;;;24.43;52.10;99868.16;5053850;28;20420;-60
2022/09/17 10:42:43;;;;;;;11.03;3.30;;;;;;;24.39;51.79;99870.63;5049638;28;20393;-60
2022/09/17 10:45:29;;;;;;;8.27;3.13;;;;;;;24.43;51.50;99890.66;5053742;28;20400;-60
2022/09/17 10:47:57;;;;;;;6.57;2.90;;;;;;;24.55;51.31;99892.22;5051587;28;20396;-59
2022/09/17 10:50:34;;;;;;;9.07;3.35;;;;;;;24.58;51.38;99891.66;5065185;28;20419;-60
2022/09/17 10:53:04;;;;;;;7.00;3.78;;;;;;;24.66;51.16;99899.16;5058703;28;20445;-58
2022/09/17 10:55:37;;;;;;;37.08;17.73;;;;;;;24.72;51.20;99889.91;5051537;28;20395;-60
2022/09/17 10:58:08;;;;;;;89.68;46.75;;;;;;;24.73;51.58;99902.34;5049760;28;20427;-60
2022/09/17 11:00:47;;;;;;;9.18;4.90;;;;;;;24.78;51.03;99902.31;5058030;28;20955;-59
2022/09/17 11:03:18;;;;;;;10.03;5.60;;;;;;;24.86;50.48;99917.16;5054166;28;20920;-58
2022/09/17 11:06:17;;;;;;;17.67;8.80;;;;;;;24.92;50.11;99926.88;5062040;28;20450;-57
2022/09/17 11:09:07;;;;;;;32.13;8.07;;;;;;;24.98;50.02;99931.13;5054205;28;20391;-59
2022/09/17 11:11:39;;;;;;;18.73;7.93;;;;;;;25.05;49.90;99919.97;5049726;28;20376;-59
2022/09/17 11:14:13;;;;;;;23.30;7.73;;;;;;;25.08;49.96;99943.78;5049531;28;20392;-60
2022/09/17 11:16:56;;;;;;;46.35;10.95;;;;;;;25.04;49.69;99942.75;5049407;28;20405;-59
2022/09/17 11:19:44;;;;;;;14.13;5.17;;;;;;;25.06;49.62;99943.25;5049609;28;20421;-59
2022/09/17 11:22:46;;;;;;;51.65;12.43;;;;;;;25.05;49.57;99951.66;5053010;28;20392;-60
2022/09/17 11:25:36;;;;;;;14.77;5.78;;;;;;;25.07;49.52;99936.75;5049101;28;20522;-60
2022/09/17 11:28:23;;;;;;;32.40;8.23;;;;;;;25.10;49.48;99917.22;5049137;28;20377;-59
2022/09/17 11:31:15;;;;;;;7.10;3.08;;;;;;;25.05;49.83;99900.16;5051909;28;20393;-60
2022/09/17 11:34:05;;;;;;;7.60;2.95;;;;;;;24.98;49.99;99908.66;5052720;28;20463;-60
2022/09/17 11:36:44;;;;;;;8.05;3.45;;;;;;;24.92;50.31;99910.59;5047301;28;20414;-60
2022/09/17 11:39:17;;;;;;;7.32;3.08;;;;;;;24.91;50.24;99913.59;5047012;28;20448;-59
2022/09/17 11:41:48;;;;;;;5.80;2.93;;;;;;;24.93;50.26;99906.78;5051336;28;20473;-61
2022/09/17 11:44:22;;;;;;;6.82;2.90;;;;;;;24.93;50.14;99887.00;5050924;28;20384;-60
2022/09/17 11:47:31;;;;;;;5.03;2.88;;;;;;;24.79;50.30;99867.88;5049597;28;20401;-59
2022/09/17 11:50:06;;;;;;;6.90;2.80;;;;;;;24.76;50.47;99865.75;5050251;28;20492;-60
2022/09/17 11:52:58;;;;;;;5.15;2.80;;;;;;;24.74;50.58;99860.63;5051603;28;20383;-60
2022/09/17 11:55:34;;;;;;;5.50;3.15;;;;;;;24.74;50.90;99871.47;5055434;28;20400;-60
2022/09/17 11:58:09;;;;;;;5.57;3.60;;;;;;;24.71;50.85;99876.63;5051223;28;20371;-60
2022/09/17 12:00:41;;;;;;;8.52;3.70;;;;;;;24.75;50.78;99870.34;5053571;28;20407;-60
2022/09/17 12:03:27;;;;;;;9.47;3.37;;;;;;;24.75;50.98;99869.53;5050732;28;20391;-59
2022/09/17 12:06:05;;;;;;;8.68;3.35;;;;;;;24.72;50.92;99868.22;5053463;28;20436;-60
2022/09/17 12:08:38;;;;;;;5.50;2.92;;;;;;;24.74;50.87;99857.06;5059195;28;20394;-60
2022/09/17 12:11:13;;;;;;;4.47;2.63;;;;;;;24.78;50.62;99852.72;5053081;28;20380;-60
2022/09/17 12:14:00;;;;;;;5.40;2.60;;;;;;;24.90;50.36;99846.91;5051663;28;20385;-60
2022/09/17 12:16:43;;;;;;;7.53;2.80;;;;;;;25.01;50.19;99837.56;5051176;28;20380;-60
2022/09/17 12:19:33;;;;;;;6.78;2.58;;;;;;;24.98;50.16;99832.72;5055347;28;20487;-60
2022/09/17 12:22:29;;;;;;;6.28;2.50;;;;;;;24.91;50.41;99816.78;5057038;28;20389;-59
2022/09/17 12:24:55;;;;;;;4.90;2.58;;;;;;;24.78;50.36;99801.22;5051197;28;20392;-59